Time;durP1;ratioP1;P1;durP2;ratioP2;P2;SDS_P1;SDS_P2;PMS_P1;PMS_P2;Temp;Humidity;BMP_temperature;BMP_pressure;BME280_temperature;BME280_humidity;BME280_pressure;Samples;Min_cycle;Max_cycle;Signal;HPM_P1;HPM_P2
2023/06/22 00:00:47;;;;;;;10.88;7.53;;;;;;;22.73;81.27;100970.34;5058919;28;20037;-72
2023/06/22 00:03:13;;;;;;;9.02;7.32;;;;;;;22.76;80.74;100970.72;5065884;28;20491;-71
2023/06/22 00:05:38;;;;;;;10.23;6.90;;;;;;;22.72;81.28;100966.88;5066219;28;20033;-70
2023/06/22 00:08:07;;;;;;;10.70;6.80;;;;;;;22.66;81.12;100962.44;5061690;28;20035;-72
2023/06/22 00:10:33;;;;;;;14.32;7.72;;;;;;;22.63;81.75;100970.00;5061032;28;20047;-71
2023/06/22 00:12:58;;;;;;;10.95;7.95;;;;;;;22.58;82.30;100961.84;5066486;28;20361;-72
2023/06/22 00:15:24;;;;;;;12.02;8.27;;;;;;;22.51;83.00;100980.47;5063278;28;20028;-72
2023/06/22 00:17:50;;;;;;;8.82;7.90;;;;;;;22.48;83.75;100972.91;5073311;28;20028;-72
2023/06/22 00:20:17;;;;;;;12.55;8.38;;;;;;;22.43;84.20;100967.41;5064397;28;20498;-72
2023/06/22 00:22:44;;;;;;;10.82;7.57;;;;;;;22.39;84.50;100968.88;5061916;28;20048;-71
2023/06/22 00:25:09;;;;;;;13.82;8.27;;;;;;;22.39;84.63;100967.03;5063489;28;20098;-72
2023/06/22 00:27:36;;;;;;;11.13;8.27;;;;;;;22.37;84.43;100963.75;5065541;28;20475;-72
2023/06/22 00:30:02;;;;;;;16.33;8.15;;;;;;;22.35;84.58;100957.03;5057857;28;20086;-72
2023/06/22 00:32:28;;;;;;;10.90;8.15;;;;;;;22.31;84.52;100961.94;5057174;28;20488;-71
2023/06/22 00:34:53;;;;;;;8.60;7.78;;;;;;;22.31;84.58;100963.78;5062404;28;20067;-72
2023/06/22 00:37:19;;;;;;;11.55;8.43;;;;;;;22.32;83.73;100957.44;5062305;28;20040;-72
2023/06/22 00:39:44;;;;;;;12.05;7.55;;;;;;;22.31;83.81;100956.63;5063257;28;20610;-72
2023/06/22 00:42:10;;;;;;;15.63;8.10;;;;;;;22.31;83.60;100953.16;5058297;28;20059;-71
2023/06/22 00:44:36;;;;;;;10.88;7.55;;;;;;;22.32;83.15;100957.44;5057327;28;20032;-72
2023/06/22 00:47:02;;;;;;;18.08;8.38;;;;;;;22.32;83.37;100952.97;5068311;28;20033;-71
2023/06/22 00:49:27;;;;;;;13.50;8.00;;;;;;;22.34;83.25;100961.53;5064617;28;20074;-72
2023/06/22 00:51:53;;;;;;;12.30;8.18;;;;;;;22.26;84.90;100953.78;5068134;28;20033;-71
2023/06/22 00:54:24;;;;;;;10.20;8.05;;;;;;;22.14;86.02;100952.84;5063156;28;20111;-71
2023/06/22 00:56:54;;;;;;;10.15;7.43;;;;;;;22.03;86.63;100953.47;5065388;28;20043;-71
2023/06/22 00:59:20;;;;;;;13.93;8.50;;;;;;;21.95;87.57;100951.81;5060917;28;20629;-72
2023/06/22 01:01:46;;;;;;;8.43;7.15;;;;;;;21.91;87.91;100945.28;5061338;28;20071;-72
2023/06/22 01:04:12;;;;;;;10.90;6.85;;;;;;;21.92;86.63;100954.06;5061928;28;20064;-72
2023/06/22 01:06:49;;;;;;;10.82;7.40;;;;;;;21.98;86.04;100947.94;5054808;28;20029;-71
2023/06/22 01:09:19;;;;;;;9.88;7.95;;;;;;;22.10;84.90;100952.44;5063176;28;20020;-71
2023/06/22 01:11:57;;;;;;;11.18;7.43;;;;;;;22.16;84.29;100945.47;5064024;28;20028;-71
2023/06/22 01:14:37;;;;;;;10.23;7.25;;;;;;;22.15;84.29;100952.63;5056365;28;20037;-71
2023/06/22 01:17:05;;;;;;;9.43;7.90;;;;;;;22.14;84.04;100943.03;5059926;28;20039;-72
2023/06/22 01:19:55;;;;;;;8.75;7.43;;;;;;;22.07;84.34;100936.94;5068930;28;20408;-72
2023/06/22 01:22:23;;;;;;;14.73;8.15;;;;;;;22.10;84.51;100943.66;5061990;28;20116;-72
2023/06/22 01:24:57;;;;;;;8.82;7.75;;;;;;;22.08;84.69;100929.78;5061451;28;20033;-72
2023/06/22 01:27:45;;;;;;;8.57;7.60;;;;;;;22.03;86.01;100932.25;5058912;28;20027;-71
2023/06/22 01:30:14;;;;;;;11.38;7.97;;;;;;;21.91;86.90;100932.03;5061345;28;20028;-71
2023/06/22 01:32:40;;;;;;;8.65;7.78;;;;;;;21.84;87.20;100934.69;5057188;28;20067;-71
2023/06/22 01:35:08;;;;;;;9.27;8.25;;;;;;;21.83;88.20;100942.84;5064138;28;20078;-72
2023/06/22 01:37:36;;;;;;;11.85;8.40;;;;;;;21.81;88.76;100935.09;5066113;28;20035;-72
2023/06/22 01:40:06;;;;;;;10.32;7.68;;;;;;;21.78;88.62;100938.16;5063579;28;20042;-72
2023/06/22 01:42:32;;;;;;;9.43;7.60;;;;;;;21.78;89.10;100934.69;5066864;28;20040;-71
2023/06/22 01:44:59;;;;;;;9.85;7.72;;;;;;;21.73;89.62;100927.38;5061874;28;20123;-72
2023/06/22 01:47:25;;;;;;;9.52;7.88;;;;;;;21.62;89.79;100925.34;5065893;28;20098;-71
2023/06/22 01:49:51;;;;;;;11.73;7.78;;;;;;;21.54;89.66;100925.56;5059188;28;20044;-71
2023/06/22 01:52:18;;;;;;;11.65;8.20;;;;;;;21.67;88.82;100922.09;5065127;28;20027;-72
2023/06/22 01:54:43;;;;;;;10.60;8.20;;;;;;;21.79;88.26;100917.75;5070165;28;20032;-71
2023/06/22 01:57:10;;;;;;;12.30;7.70;;;;;;;21.85;87.10;100916.94;5069485;28;20051;-71
2023/06/22 01:59:36;;;;;;;13.70;8.30;;;;;;;21.95;85.74;100909.38;5060710;28;20039;-72
2023/06/22 02:02:06;;;;;;;10.10;7.63;;;;;;;22.00;85.05;100917.53;5072640;28;20036;-71
2023/06/22 02:04:40;;;;;;;13.00;7.97;;;;;;;21.98;85.06;100910.78;5056218;28;20076;-72
2023/06/22 02:07:12;;;;;;;9.85;7.35;;;;;;;21.97;85.06;100903.84;5059130;28;20472;-72
2023/06/22 02:09:42;;;;;;;12.57;7.68;;;;;;;21.98;84.90;100908.94;5052298;28;20037;-72
2023/06/22 02:12:10;;;;;;;9.68;7.05;;;;;;;21.98;84.66;100898.34;5063667;28;20032;-71
2023/06/22 02:14:37;;;;;;;14.50;7.13;;;;;;;21.93;84.82;100898.16;5068382;28;20016;-72
2023/06/22 02:17:07;;;;;;;10.68;7.30;;;;;;;21.90;84.93;100897.75;5066561;28;20115;-71
2023/06/22 02:19:35;;;;;;;12.82;8.20;;;;;;;21.90;85.73;100906.53;5059897;28;20090;-71
2023/06/22 02:22:01;;;;;;;12.43;8.13;;;;;;;21.81;86.33;100903.28;5075361;28;20390;-72
2023/06/22 02:24:26;;;;;;;10.68;8.70;;;;;;;21.72;87.65;100909.03;5061447;28;20033;-72
2023/06/22 02:26:52;;;;;;;12.43;8.55;;;;;;;21.63;88.63;100904.97;5054582;28;20056;-73
2023/06/22 02:29:17;;;;;;;12.85;8.80;;;;;;;21.50;89.60;100900.47;5062448;28;20034;-72
2023/06/22 02:31:43;;;;;;;13.20;9.25;;;;;;;21.43;90.56;100903.13;5065604;28;20082;-72
2023/06/22 02:34:08;;;;;;;11.30;8.65;;;;;;;21.35;90.93;100905.97;5067042;28;20028;-71
2023/06/22 02:36:34;;;;;;;13.23;8.88;;;;;;;21.32;91.53;100903.75;5065508;28;20075;-72
2023/06/22 02:39:01;;;;;;;12.45;9.50;;;;;;;21.34;91.44;100896.41;5059661;28;20534;-71
2023/06/22 02:41:27;;;;;;;13.65;8.90;;;;;;;21.38;90.97;100902.94;5068217;28;20071;-71
2023/06/22 02:43:52;;;;;;;12.50;9.43;;;;;;;21.38;91.14;100912.72;5068309;28;20032;-72
2023/06/22 02:46:18;;;;;;;11.57;8.63;;;;;;;21.38;90.75;100910.06;5067815;28;20489;-72
2023/06/22 02:48:43;;;;;;;13.50;8.82;;;;;;;21.34;91.36;100907.00;5064290;28;20154;-72
2023/06/22 02:51:08;;;;;;;10.43;8.57;;;;;;;21.29;91.02;100914.75;5070690;28;20033;-71
2023/06/22 02:53:34;;;;;;;10.90;8.50;;;;;;;21.28;90.66;100912.31;5075356;28;20032;-72
2023/06/22 02:56:07;;;;;;;11.35;7.18;;;;;;;21.27;91.28;100911.47;5065333;28;21643;-74
2023/06/22 02:58:38;;;;;;;14.63;9.40;;;;;;;21.27;90.99;100916.78;5066871;28;20111;-72
2023/06/22 03:01:05;;;;;;;15.00;8.55;;;;;;;21.27;90.86;100914.13;5066469;28;20449;-73
2023/06/22 03:03:32;;;;;;;10.85;8.13;;;;;;;21.28;90.83;100918.41;5062893;28;20040;-72
2023/06/22 03:05:57;;;;;;;11.75;8.80;;;;;;;21.26;90.94;100909.88;5063398;28;20036;-72
2023/06/22 03:08:23;;;;;;;14.60;8.85;;;;;;;21.25;91.80;100910.91;5061732;28;20479;-71
2023/06/22 03:10:49;;;;;;;10.65;9.25;;;;;;;21.23;91.58;100910.28;5062195;28;20032;-71
2023/06/22 03:13:15;;;;;;;13.55;9.27;;;;;;;21.24;91.89;100911.09;5061236;28;20028;-72
2023/06/22 03:15:41;;;;;;;12.95;9.38;;;;;;;21.23;92.50;100910.28;5065070;28;20752;-71
2023/06/22 03:18:07;;;;;;;11.18;8.65;;;;;;;21.23;92.26;100914.78;5064788;28;20079;-72
2023/06/22 03:20:34;;;;;;;11.52;8.52;;;;;;;21.23;92.13;100907.63;5070178;28;20064;-72
2023/06/22 03:23:00;;;;;;;16.67;8.45;;;;;;;21.27;91.11;100911.47;5063370;28;20036;-72
2023/06/22 03:25:26;;;;;;;9.93;8.52;;;;;;;21.25;91.09;100915.38;5067152;28;20671;-72
2023/06/22 03:27:51;;;;;;;10.68;7.78;;;;;;;21.26;90.53;100915.19;5061786;28;20366;-71
2023/06/22 03:30:17;;;;;;;13.10;8.05;;;;;;;21.26;90.49;100917.00;5052503;28;20029;-71
2023/06/22 03:32:43;;;;;;;9.98;7.30;;;;;;;21.25;90.23;100915.38;5069219;28;20086;-72
2023/06/22 03:35:10;;;;;;;9.32;7.78;;;;;;;21.24;90.17;100917.22;5067869;28;20444;-72
2023/06/22 03:37:36;;;;;;;11.05;7.97;;;;;;;21.27;90.93;100916.00;5064889;28;20040;-71
2023/06/22 03:40:05;;;;;;;11.43;8.48;;;;;;;21.24;91.30;100911.91;5061102;28;20072;-72
2023/06/22 03:42:30;;;;;;;14.00;8.63;;;;;;;21.21;91.61;100914.97;5059439;28;20071;-71
2023/06/22 03:44:56;;;;;;;10.32;8.75;;;;;;;21.16;91.80;100912.91;5064741;28;20036;-71
2023/06/22 03:47:22;;;;;;;17.48;8.68;;;;;;;21.15;92.25;100918.41;5066674;28;20385;-71
2023/06/22 03:49:47;;;;;;;14.80;8.65;;;;;;;21.12;92.60;100926.75;5067201;28;20043;-72
2023/06/22 03:52:14;;;;;;;9.65;8.38;;;;;;;21.16;92.49;100925.34;5070060;28;20029;-72
2023/06/22 03:54:40;;;;;;;11.45;8.10;;;;;;;21.16;92.00;100914.72;5063974;28;20071;-72
2023/06/22 03:57:06;;;;;;;12.00;7.63;;;;;;;21.18;91.56;100918.81;5065102;28;20086;-71
2023/06/22 03:59:32;;;;;;;12.43;8.13;;;;;;;21.19;91.39;100917.78;5065364;28;20032;-71
2023/06/22 04:01:58;;;;;;;13.95;7.80;;;;;;;21.20;91.62;100915.97;5066528;28;20045;-71
2023/06/22 04:04:24;;;;;;;11.98;8.05;;;;;;;21.22;92.26;100924.56;5067242;28;20085;-71
2023/06/22 04:06:49;;;;;;;9.98;7.82;;;;;;;21.22;92.64;100924.56;5064965;28;20024;-68
2023/06/22 04:09:15;;;;;;;11.30;8.52;;;;;;;21.23;92.07;100928.84;5066803;28;20361;-68
2023/06/22 04:11:41;;;;;;;15.10;8.95;;;;;;;21.20;92.29;100930.03;5071057;28;20029;-69
2023/06/22 04:14:07;;;;;;;11.02;8.00;;;;;;;21.23;92.42;100931.50;5062844;28;20495;-69
2023/06/22 04:16:33;;;;;;;12.48;8.70;;;;;;;21.20;93.33;100927.38;5065269;28;20048;-69
2023/06/22 04:18:59;;;;;;;12.82;8.68;;;;;;;21.23;93.04;100928.84;5060949;28;20049;-69
2023/06/22 04:21:24;;;;;;;11.57;8.45;;;;;;;21.24;93.47;100925.16;5069494;28;20110;-68
2023/06/22 04:23:50;;;;;;;13.68;9.20;;;;;;;21.21;94.04;100922.91;5061515;28;20132;-68
2023/06/22 04:26:16;;;;;;;12.75;8.57;;;;;;;21.21;94.00;100925.56;5070507;28;20145;-69
2023/06/22 04:28:42;;;;;;;13.23;9.10;;;;;;;21.22;94.34;100927.19;5065395;28;20028;-68
2023/06/22 04:31:07;;;;;;;18.60;9.35;;;;;;;21.26;94.64;100920.47;5072066;28;20387;-69
2023/06/22 04:33:33;;;;;;;11.57;9.20;;;;;;;21.31;94.13;100911.91;5058405;28;20024;-68
2023/06/22 04:36:01;;;;;;;10.30;8.02;;;;;;;21.36;93.63;100920.88;5065128;28;20033;-69
2023/06/22 04:38:26;;;;;;;12.65;8.95;;;;;;;21.46;92.89;100910.69;5070328;28;20388;-68
2023/06/22 04:40:53;;;;;;;11.10;8.82;;;;;;;21.49;92.64;100920.88;5056387;28;20040;-68
2023/06/22 04:43:19;;;;;;;9.48;7.75;;;;;;;21.49;92.43;100915.56;5064270;28;20033;-70
2023/06/22 04:45:45;;;;;;;11.25;8.00;;;;;;;21.55;92.19;100921.06;5056284;28;20103;-69
2023/06/22 04:48:15;;;;;;;12.68;8.20;;;;;;;21.62;91.29;100914.75;5060796;28;20048;-68
2023/06/22 04:50:41;;;;;;;11.73;7.97;;;;;;;21.67;90.98;100914.94;5067181;28;20040;-69
2023/06/22 04:53:07;;;;;;;9.77;8.02;;;;;;;21.69;91.21;100914.75;5066324;28;20051;-69
2023/06/22 04:55:32;;;;;;;12.05;8.38;;;;;;;21.72;90.67;100914.34;5064013;28;20098;-69
2023/06/22 04:58:04;;;;;;;13.93;8.35;;;;;;;21.74;90.92;100914.94;5069750;28;20044;-69
2023/06/22 05:00:31;;;;;;;12.45;8.18;;;;;;;21.80;90.41;100908.78;5064688;28;20036;-69
2023/06/22 05:03:00;;;;;;;10.27;7.78;;;;;;;21.85;90.53;100914.28;5053322;28;20041;-69
2023/06/22 05:05:26;;;;;;;14.82;8.07;;;;;;;21.89;90.40;100912.84;5065546;28;20127;-69
2023/06/22 05:07:59;;;;;;;9.50;7.82;;;;;;;21.95;90.13;100914.69;5065984;28;20107;-69
2023/06/22 05:10:25;;;;;;;14.98;8.35;;;;;;;22.08;89.34;100919.97;5058586;28;20029;-68
2023/06/22 05:12:50;;;;;;;14.70;8.15;;;;;;;22.20;88.60;100922.00;5057569;28;20589;-69
2023/06/22 05:15:16;;;;;;;12.90;7.80;;;;;;;22.21;89.14;100923.63;5061534;28;20037;-69
2023/06/22 05:17:44;;;;;;;14.45;9.23;;;;;;;22.23;89.02;100927.66;5056248;28;20376;-69
2023/06/22 05:20:12;;;;;;;13.07;8.35;;;;;;;22.29;88.60;100926.00;5063483;28;20596;-69
2023/06/22 05:22:39;;;;;;;12.48;9.18;;;;;;;22.35;88.88;100930.50;5064393;28;20528;-69
2023/06/22 05:25:09;;;;;;;11.02;8.35;;;;;;;22.31;88.74;100929.28;5059395;28;20459;-69
2023/06/22 05:27:39;;;;;;;15.25;8.23;;;;;;;22.35;88.58;100918.03;5054491;28;20472;-68
2023/06/22 05:30:11;;;;;;;9.25;8.10;;;;;;;22.42;88.41;100918.81;5052610;28;20838;-68
2023/06/22 05:32:37;;;;;;;13.05;8.20;;;;;;;22.48;87.99;100915.31;5056406;28;20038;-69
2023/06/22 05:35:03;;;;;;;15.95;7.72;;;;;;;22.58;87.71;100916.72;5060024;28;20404;-69
2023/06/22 05:37:30;;;;;;;9.77;7.72;;;;;;;22.65;87.46;100918.31;5059151;28;20311;-69
2023/06/22 05:39:55;;;;;;;15.70;8.15;;;;;;;22.67;87.30;100924.22;5056198;28;20031;-69
2023/06/22 05:42:21;;;;;;;13.20;8.55;;;;;;;22.71;87.86;100921.94;5062770;28;20032;-68
2023/06/22 05:44:47;;;;;;;12.43;8.77;;;;;;;22.72;87.70;100918.25;5061530;28;20044;-68
2023/06/22 05:47:13;;;;;;;12.52;8.30;;;;;;;22.70;87.87;100913.16;5055779;28;20372;-69
2023/06/22 05:49:38;;;;;;;11.30;8.15;;;;;;;22.74;87.98;100909.03;5055414;28;20147;-68
2023/06/22 05:52:04;;;;;;;11.38;8.48;;;;;;;22.77;87.91;100908.63;5053878;28;20131;-68
2023/06/22 05:54:30;;;;;;;13.38;8.38;;;;;;;22.84;87.51;100903.28;5058716;28;20020;-68
2023/06/22 05:56:55;;;;;;;13.95;8.18;;;;;;;22.95;87.08;100904.44;5061102;28;20086;-69
2023/06/22 05:59:21;;;;;;;13.27;7.72;;;;;;;23.08;86.90;100901.72;5061044;28;20195;-68
2023/06/22 06:01:50;;;;;;;10.35;8.15;;;;;;;23.29;85.49;100895.19;5062868;28;20032;-68
2023/06/22 06:04:17;;;;;;;14.18;8.05;;;;;;;23.37;84.73;100901.03;5062391;28;20040;-68
2023/06/22 06:06:43;;;;;;;11.32;7.93;;;;;;;23.40;84.56;100889.16;5061315;28;20068;-68
2023/06/22 06:09:08;;;;;;;12.40;9.02;;;;;;;23.46;84.90;100885.63;5062434;28;20090;-68
2023/06/22 06:11:33;;;;;;;13.45;9.07;;;;;;;23.53;84.63;100886.41;5060596;28;20037;-68
2023/06/22 06:13:59;;;;;;;10.45;7.38;;;;;;;23.63;84.29;100880.59;5063662;28;20464;-68
2023/06/22 06:16:24;;;;;;;13.77;7.53;;;;;;;23.68;83.24;100884.19;5065726;28;20067;-68
2023/06/22 06:18:50;;;;;;;11.70;7.57;;;;;;;23.78;82.93;100889.03;5079825;28;20396;-67
2023/06/22 06:21:16;;;;;;;11.07;7.35;;;;;;;24.00;82.51;100892.06;5077064;28;20047;-67
2023/06/22 06:23:42;;;;;;;11.05;8.55;;;;;;;24.06;82.43;100892.00;5081809;28;20345;-68
2023/06/22 06:26:07;;;;;;;11.98;7.90;;;;;;;24.14;82.39;100893.50;5072998;28;20497;-68
2023/06/22 06:28:33;;;;;;;15.63;8.65;;;;;;;24.20;82.17;100891.81;5063028;28;20209;-67
2023/06/22 06:30:59;;;;;;;11.80;7.88;;;;;;;24.32;82.02;100892.72;5065349;28;20050;-67
2023/06/22 06:33:25;;;;;;;14.07;8.57;;;;;;;24.37;81.98;100890.19;5061985;28;20047;-68
2023/06/22 06:35:50;;;;;;;11.18;7.90;;;;;;;24.38;81.48;100894.47;5067938;28;20357;-67
2023/06/22 06:38:15;;;;;;;13.02;7.22;;;;;;;24.46;81.40;100897.66;5063905;28;20078;-67
2023/06/22 06:40:41;;;;;;;12.05;7.65;;;;;;;24.55;80.85;100900.00;5067082;28;20028;-68
2023/06/22 06:43:07;;;;;;;15.52;8.02;;;;;;;24.55;81.29;100903.47;5061203;28;20025;-68
2023/06/22 06:45:34;;;;;;;15.05;8.45;;;;;;;24.65;81.33;100903.72;5074937;28;20546;-67
2023/06/22 06:48:00;;;;;;;10.43;8.23;;;;;;;24.79;81.23;100897.19;5085391;28;20028;-67
2023/06/22 06:50:25;;;;;;;10.80;8.55;;;;;;;24.92;80.50;100900.69;5079045;28;20073;-68
2023/06/22 06:52:51;;;;;;;8.52;7.53;;;;;;;24.92;80.63;100898.03;5085117;28;20036;-67
2023/06/22 06:55:17;;;;;;;16.98;8.85;;;;;;;24.98;80.70;100907.81;5083902;28;20036;-67
2023/06/22 06:57:43;;;;;;;14.50;8.23;;;;;;;25.04;80.83;100906.91;5084402;28;20082;-67
2023/06/22 07:00:13;;;;;;;11.80;8.07;;;;;;;25.09;79.72;100907.00;5085464;28;20027;-67
2023/06/22 07:02:43;;;;;;;8.88;7.85;;;;;;;25.15;80.07;100906.06;5075953;28;20452;-68
2023/06/22 07:05:10;;;;;;;10.20;8.02;;;;;;;25.28;79.20;100905.88;5076824;28;20028;-68
2023/06/22 07:07:37;;;;;;;13.23;7.07;;;;;;;25.31;78.68;100909.94;5071251;28;20052;-68
2023/06/22 07:10:04;;;;;;;11.55;8.05;;;;;;;25.42;79.00;100909.94;5075775;28;20073;-68
2023/06/22 07:12:29;;;;;;;9.82;8.05;;;;;;;25.56;77.82;100912.34;5085516;28;20028;-68
2023/06/22 07:15:01;;;;;;;12.88;7.53;;;;;;;25.60;77.77;100906.31;5080195;28;20074;-68
2023/06/22 07:17:27;;;;;;;12.90;7.15;;;;;;;25.76;77.12;100912.84;5086236;28;20035;-68
2023/06/22 07:19:52;;;;;;;11.20;8.05;;;;;;;25.86;76.68;100909.59;5067962;28;20496;-67
2023/06/22 07:22:18;;;;;;;9.65;7.47;;;;;;;26.04;75.77;100909.44;5077277;28;20040;-68
2023/06/22 07:24:43;;;;;;;15.30;7.43;;;;;;;25.93;75.12;100910.28;5072773;28;20164;-68
2023/06/22 07:27:11;;;;;;;10.70;7.32;;;;;;;25.87;74.97;100908.56;5074073;28;20032;-68
2023/06/22 07:29:37;;;;;;;12.73;8.05;;;;;;;26.05;74.76;100901.19;5065251;28;20094;-68
2023/06/22 07:32:05;;;;;;;14.88;7.65;;;;;;;26.12;75.06;100912.53;5077877;28;20025;-68
2023/06/22 07:34:30;;;;;;;11.40;7.72;;;;;;;26.27;74.60;100903.22;5074025;28;20024;-68
2023/06/22 07:36:55;;;;;;;13.02;7.72;;;;;;;26.43;74.34;100903.31;5066631;28;20078;-68
2023/06/22 07:39:25;;;;;;;12.85;7.80;;;;;;;26.43;73.95;100908.66;5073359;28;20127;-68
2023/06/22 07:41:51;;;;;;;12.07;7.82;;;;;;;26.48;74.38;100905.25;5070198;28;20032;-68
2023/06/22 07:44:17;;;;;;;8.63;7.20;;;;;;;26.68;74.11;100905.63;5069426;28;20549;-68
2023/06/22 07:46:42;;;;;;;10.77;7.53;;;;;;;26.91;73.39;100909.25;5067904;28;20024;-68
2023/06/22 07:49:10;;;;;;;15.40;8.23;;;;;;;26.94;72.86;100908.75;5074719;28;20078;-68
2023/06/22 07:51:36;;;;;;;12.13;7.50;;;;;;;26.87;72.87;100908.09;5070513;28;20060;-68
2023/06/22 07:54:01;;;;;;;14.80;7.65;;;;;;;27.01;72.37;100906.75;5074912;28;20119;-68
2023/06/22 07:56:27;;;;;;;9.88;7.38;;;;;;;27.10;72.04;100905.28;5075279;28;20115;-68
2023/06/22 07:58:53;;;;;;;13.07;6.57;;;;;;;27.23;70.97;100901.50;5075879;28;20028;-68
2023/06/22 08:01:20;;;;;;;14.85;7.00;;;;;;;27.41;70.12;100904.69;5075719;28;20036;-68
2023/06/22 08:03:48;;;;;;;12.65;7.00;;;;;;;27.46;69.64;100900.47;5071318;28;20067;-68
2023/06/22 08:06:13;;;;;;;12.18;6.88;;;;;;;27.61;68.22;100903.41;5069194;28;20074;-68
2023/06/22 08:08:39;;;;;;;11.20;6.43;;;;;;;27.72;67.93;100897.16;5078802;28;20123;-68
2023/06/22 08:11:05;;;;;;;14.07;7.25;;;;;;;27.82;66.79;100894.59;5075694;28;20438;-68
2023/06/22 08:13:31;;;;;;;12.43;7.03;;;;;;;28.09;66.98;100890.13;5076639;28;20503;-68
2023/06/22 08:15:56;;;;;;;10.10;6.80;;;;;;;28.19;66.22;100893.97;5077177;28;20060;-68
2023/06/22 08:18:22;;;;;;;12.18;7.28;;;;;;;28.35;65.94;100893.94;5076750;28;20024;-68
2023/06/22 08:20:47;;;;;;;13.23;6.95;;;;;;;28.65;64.90;100898.78;5076889;28;20181;-68
2023/06/22 08:23:12;;;;;;;10.88;6.72;;;;;;;28.65;63.75;100893.41;5076638;28;20033;-68
2023/06/22 08:25:38;;;;;;;14.75;6.40;;;;;;;28.65;64.73;100898.78;5078435;28;20040;-68
2023/06/22 08:28:04;;;;;;;9.23;7.38;;;;;;;28.92;64.72;100895.28;5077269;28;20487;-69
2023/06/22 08:30:30;;;;;;;10.00;8.60;;;;;;;28.94;64.45;100895.84;5077677;28;20033;-68
2023/06/22 08:32:55;;;;;;;12.80;7.15;;;;;;;28.82;64.88;100895.22;5078203;28;20024;-68
2023/06/22 08:35:24;;;;;;;13.13;7.63;;;;;;;28.96;64.54;100893.69;5059737;28;20112;-68
2023/06/22 08:37:52;;;;;;;9.50;7.13;;;;;;;29.22;63.76;100890.16;5078472;28;20024;-68
2023/06/22 08:40:19;;;;;;;12.98;7.57;;;;;;;29.36;64.34;100894.00;5074951;28;20063;-68
2023/06/22 08:42:45;;;;;;;11.07;7.40;;;;;;;29.32;64.17;100892.88;5072013;28;20039;-68
2023/06/22 08:45:12;;;;;;;9.68;7.82;;;;;;;29.09;63.58;100890.59;5078837;28;20028;-68
2023/06/22 08:47:38;;;;;;;13.55;8.85;;;;;;;28.94;63.79;100893.97;5079089;28;20447;-68
2023/06/22 08:50:04;;;;;;;15.18;8.32;;;;;;;28.86;63.62;100894.41;5080872;28;20110;-67
2023/06/22 08:52:29;;;;;;;10.07;8.18;;;;;;;28.90;63.59;100890.16;5077865;28;20176;-68
2023/06/22 08:54:55;;;;;;;11.18;8.45;;;;;;;28.96;63.33;100889.16;5082093;28;20032;-68
2023/06/22 08:57:21;;;;;;;12.63;8.45;;;;;;;29.06;63.86;100885.75;5079484;28;20135;-68
2023/06/22 08:59:47;;;;;;;14.77;8.18;;;;;;;29.20;63.38;100891.47;5081261;28;20043;-67
2023/06/22 09:02:13;;;;;;;12.52;8.95;;;;;;;29.32;63.56;100884.84;5076493;28;20035;-68
2023/06/22 09:04:38;;;;;;;10.93;9.13;;;;;;;29.20;63.99;100881.56;5081435;28;20036;-68
2023/06/22 09:07:04;;;;;;;13.50;8.27;;;;;;;29.52;64.23;100880.72;5083860;28;20441;-68
2023/06/22 09:09:30;;;;;;;14.32;10.25;;;;;;;29.39;64.06;100888.09;5079645;28;20044;-68
2023/06/22 09:11:55;;;;;;;14.13;10.25;;;;;;;29.22;64.92;100876.75;5084695;28;20058;-68
2023/06/22 09:14:20;;;;;;;15.13;11.10;;;;;;;29.47;64.70;100880.66;5080619;28;20048;-69
2023/06/22 09:16:46;;;;;;;14.10;10.20;;;;;;;29.59;64.75;100875.91;5084690;28;20028;-68
2023/06/22 09:19:12;;;;;;;14.02;10.50;;;;;;;29.49;64.95;100875.84;5083841;28;20056;-68
2023/06/22 09:21:38;;;;;;;14.07;10.75;;;;;;;29.45;65.24;100874.75;5082363;28;20492;-68
2023/06/22 09:24:03;;;;;;;12.57;9.85;;;;;;;29.63;65.66;100871.63;5084336;28;20123;-68
2023/06/22 09:26:29;;;;;;;17.40;11.82;;;;;;;29.67;64.94;100875.44;5082671;28;20457;-68
2023/06/22 09:28:54;;;;;;;13.60;9.85;;;;;;;29.52;64.22;100891.44;5081171;28;20480;-68
2023/06/22 09:31:25;;;;;;;11.98;9.95;;;;;;;29.60;65.15;100882.91;5083951;28;20040;-68
2023/06/22 09:33:52;;;;;;;12.00;10.25;;;;;;;29.79;65.33;100876.00;5072645;28;20024;-68
2023/06/22 09:36:18;;;;;;;20.60;10.65;;;;;;;29.83;65.95;100882.47;5085695;28;20036;-68
2023/06/22 09:38:43;;;;;;;11.90;10.70;;;;;;;29.90;65.76;100874.16;5082568;28;20145;-67
2023/06/22 09:41:09;;;;;;;13.77;10.68;;;;;;;29.77;64.76;100867.41;5075651;28;20024;-68
2023/06/22 09:43:37;;;;;;;15.73;10.27;;;;;;;29.90;65.52;100879.53;5072117;28;20040;-68
2023/06/22 09:46:03;;;;;;;10.50;9.43;;;;;;;30.09;64.93;100878.03;5085389;28;20425;-68
2023/06/22 09:48:30;;;;;;;12.98;9.43;;;;;;;30.23;65.31;100875.66;5071943;28;20036;-68
2023/06/22 09:50:56;;;;;;;16.08;10.75;;;;;;;30.32;66.18;100876.75;5071764;28;20025;-68
2023/06/22 09:53:21;;;;;;;11.32;10.20;;;;;;;30.07;66.45;100863.25;5073247;28;20090;-68
2023/06/22 09:55:47;;;;;;;13.05;10.88;;;;;;;30.11;66.56;100862.47;5053683;28;20074;-68
2023/06/22 09:58:12;;;;;;;11.43;10.27;;;;;;;30.39;65.27;100855.78;5069744;28;20032;-69
2023/06/22 10:00:38;;;;;;;15.07;10.68;;;;;;;30.57;65.41;100859.88;5069021;28;20071;-68
2023/06/22 10:03:03;;;;;;;12.00;10.13;;;;;;;30.28;65.73;100851.47;5062565;28;20082;-68
2023/06/22 10:05:29;;;;;;;11.45;10.18;;;;;;;30.18;66.30;100854.16;5071903;28;20085;-68
2023/06/22 10:07:54;;;;;;;14.65;11.77;;;;;;;30.37;66.37;100852.56;5064041;28;20403;-68
2023/06/22 10:10:19;;;;;;;14.60;10.48;;;;;;;30.28;67.45;100852.28;5070552;28;20033;-68
2023/06/22 10:12:47;;;;;;;15.90;10.82;;;;;;;30.17;66.18;100849.84;5060625;28;20153;-68
2023/06/22 10:15:14;;;;;;;12.93;11.00;;;;;;;30.04;65.32;100846.59;5070837;28;20039;-68
2023/06/22 10:17:39;;;;;;;11.65;10.32;;;;;;;30.15;65.46;100852.00;5071060;28;20040;-68
2023/06/22 10:20:13;;;;;;;13.50;11.35;;;;;;;30.30;64.73;100849.31;5067403;28;20063;-68
2023/06/22 10:22:43;;;;;;;12.60;10.00;;;;;;;30.19;65.19;100847.72;5065840;28;20495;-68
2023/06/22 10:25:09;;;;;;;13.25;11.15;;;;;;;30.31;65.14;100848.25;5071629;28;20520;-68
2023/06/22 10:27:35;;;;;;;15.45;11.77;;;;;;;30.23;63.39;100854.16;5072354;28;20075;-67
2023/06/22 10:30:00;;;;;;;14.48;11.23;;;;;;;30.05;64.21;100852.75;5068185;28;20566;-68
2023/06/22 10:32:27;;;;;;;12.05;10.52;;;;;;;29.95;64.32;100856.19;5064044;28;20126;-68
2023/06/22 10:34:53;;;;;;;12.52;10.35;;;;;;;30.15;64.14;100857.38;5065735;28;20028;-68
2023/06/22 10:37:18;;;;;;;16.17;10.30;;;;;;;30.22;64.05;100855.25;5067879;28;20113;-68
2023/06/22 10:39:44;;;;;;;15.00;12.13;;;;;;;30.12;63.53;100855.22;5075670;28;20393;-68
2023/06/22 10:42:09;;;;;;;17.42;11.35;;;;;;;30.24;63.77;100856.59;5066689;28;20040;-68
2023/06/22 10:44:34;;;;;;;12.77;11.25;;;;;;;30.47;64.18;100849.09;5074008;28;20033;-68
2023/06/22 10:47:00;;;;;;;10.90;9.90;;;;;;;30.40;64.06;100846.66;5073344;28;20037;-68
2023/06/22 10:49:25;;;;;;;15.35;11.70;;;;;;;30.48;63.46;100848.81;5067779;28;20433;-68
2023/06/22 10:51:51;;;;;;;12.15;10.50;;;;;;;30.45;63.91;100843.16;5074242;28;20043;-68
2023/06/22 10:54:18;;;;;;;14.82;10.82;;;;;;;30.66;63.88;100834.88;5071058;28;20032;-68
2023/06/22 10:56:44;;;;;;;15.02;12.10;;;;;;;30.65;64.37;100846.72;5078679;28;20040;-68
2023/06/22 10:59:09;;;;;;;15.43;12.52;;;;;;;30.42;63.84;100835.63;5073397;28;20500;-68
2023/06/22 11:01:34;;;;;;;13.55;12.25;;;;;;;30.35;64.93;100836.69;5079639;28;20446;-68
2023/06/22 11:04:00;;;;;;;16.10;11.15;;;;;;;30.14;65.42;100829.69;5081187;28;20123;-69
2023/06/22 11:06:25;;;;;;;12.43;11.20;;;;;;;30.08;65.18;100825.38;5075082;28;20028;-68
2023/06/22 11:08:51;;;;;;;13.02;10.73;;;;;;;30.16;66.12;100832.13;5079058;28;20059;-69
2023/06/22 11:11:17;;;;;;;18.63;12.20;;;;;;;30.23;66.08;100828.09;5079685;28;20052;-69
2023/06/22 11:13:43;;;;;;;21.05;12.68;;;;;;;30.36;65.16;100824.06;5080608;28;20024;-68